Time;durP1;ratioP1;P1;durP2;ratioP2;P2;SDS_P1;SDS_P2;PMS_P1;PMS_P2;Temp;Humidity;BMP_temperature;BMP_pressure;BME280_temperature;BME280_humidity;BME280_pressure;Samples;Min_cycle;Max_cycle;Signal;HPM_P1;HPM_P2
2023/11/14 00:00:21;;;;;;;9.53;2.70;;;;;;;;;;5078163;28;20553;-64
2023/11/14 00:02:49;;;;;;;9.60;3.27;;;;;;;;;;5075679;28;21079;-64
2023/11/14 00:05:17;;;;;;;13.17;3.20;;;;;;;;;;5076778;28;20689;-64
2023/11/14 00:07:45;;;;;;;17.83;3.50;;;;;;;;;;5075692;28;20712;-64
2023/11/14 00:10:14;;;;;;;16.77;3.60;;;;;;;;;;5077653;28;20686;-63
2023/11/14 00:12:42;;;;;;;12.32;2.72;;;;;;;;;;5076209;28;20630;-64
2023/11/14 00:15:12;;;;;;;13.00;2.97;;;;;;;;;;5077823;28;20221;-65
2023/11/14 00:17:41;;;;;;;6.60;2.83;;;;;;;;;;5060526;28;20639;-64
2023/11/14 00:20:10;;;;;;;9.20;2.70;;;;;;;;;;5066376;28;20629;-64
2023/11/14 00:22:37;;;;;;;8.43;3.50;;;;;;;;;;5074556;28;20609;-63
2023/11/14 00:25:06;;;;;;;14.37;2.60;;;;;;;;;;5077505;28;20979;-63
2023/11/14 00:27:34;;;;;;;11.63;2.60;;;;;;;;;;5075028;28;20661;-63
2023/11/14 00:30:02;;;;;;;16.40;4.33;;;;;;;;;;5058942;28;20625;-63
2023/11/14 00:32:32;;;;;;;15.93;2.83;;;;;;;;;;5076217;28;20625;-64
2023/11/14 00:35:00;;;;;;;13.27;3.70;;;;;;;;;;5077514;28;20616;-64
2023/11/14 00:37:28;;;;;;;11.13;2.67;;;;;;;;;;5075609;28;20202;-64
2023/11/14 00:39:57;;;;;;;9.20;3.90;;;;;;;;;;5077048;28;21047;-64
2023/11/14 00:42:25;;;;;;;14.47;3.80;;;;;;;;;;5075795;28;21045;-64
2023/11/14 00:44:53;;;;;;;9.67;3.43;;;;;;;;;;5075168;28;20737;-63
2023/11/14 00:47:21;;;;;;;11.13;3.70;;;;;;;;;;5075441;28;20674;-63
2023/11/14 00:49:51;;;;;;;11.03;3.67;;;;;;;;;;5075719;28;20733;-63
2023/11/14 00:52:19;;;;;;;8.93;3.07;;;;;;;;;;5057681;28;20695;-64
2023/11/14 00:54:47;;;;;;;16.23;4.10;;;;;;;;;;5076270;28;20669;-64
2023/11/14 00:57:16;;;;;;;7.50;2.23;;;;;;;;;;5076303;28;20697;-64
2023/11/14 00:59:44;;;;;;;6.57;2.23;;;;;;;;;;5076089;28;20709;-63
2023/11/14 01:02:13;;;;;;;12.10;3.00;;;;;;;;;;5057187;28;20638;-64
2023/11/14 01:04:41;;;;;;;11.70;2.88;;;;;;;;;;5073527;28;21006;-63
2023/11/14 01:07:11;;;;;;;15.13;3.17;;;;;;;;;;5075356;28;20216;-63
2023/11/14 01:09:39;;;;;;;12.00;2.60;;;;;;;;;;5075844;28;20633;-64
2023/11/14 01:12:08;;;;;;;18.73;2.83;;;;;;;;;;5075719;28;20650;-64
2023/11/14 01:14:36;;;;;;;15.77;2.77;;;;;;;;;;5075338;28;20724;-66
2023/11/14 01:17:05;;;;;;;17.73;4.33;;;;;;;;;;5076191;28;20587;-63
2023/11/14 01:19:33;;;;;;;9.03;2.60;;;;;;;;;;5073867;28;20633;-64
2023/11/14 01:22:01;;;;;;;16.17;2.73;;;;;;;;;;5074491;28;21245;-64
2023/11/14 01:24:32;;;;;;;13.85;2.90;;;;;;;;;;5057171;28;20634;-63
2023/11/14 01:27:02;;;;;;;9.13;2.40;;;;;;;;;;5075757;28;20222;-63
2023/11/14 01:29:30;;;;;;;14.50;3.07;;;;;;;;;;5074581;28;20641;-64
2023/11/14 01:31:58;;;;;;;5.77;2.63;;;;;;;;;;5074569;28;20636;-63
2023/11/14 01:34:26;;;;;;;14.97;4.83;;;;;;;;;;5057637;28;20626;-63
2023/11/14 01:36:56;;;;;;;13.93;2.92;;;;;;;;;;5058169;28;21282;-63
2023/11/14 01:39:25;;;;;;;14.60;3.55;;;;;;;;;;5075813;28;20287;-64
2023/11/14 01:41:54;;;;;;;13.03;2.80;;;;;;;;;;5073952;28;20288;-64
2023/11/14 01:44:22;;;;;;;9.93;3.17;;;;;;;;;;5074389;28;21101;-61
2023/11/14 01:46:51;;;;;;;11.10;2.90;;;;;;;;;;5072851;28;20670;-65
2023/11/14 01:49:18;;;;;;;14.47;2.50;;;;;;;;;;5072790;28;20787;-64
2023/11/14 01:51:47;;;;;;;11.70;3.37;;;;;;;;;;5056008;28;20713;-64
2023/11/14 01:54:17;;;;;;;9.03;3.57;;;;;;;;;;5074958;28;20625;-64
2023/11/14 01:56:45;;;;;;;12.73;3.30;;;;;;;;;;5057559;28;20780;-64
2023/11/14 01:59:15;;;;;;;8.80;2.93;;;;;;;;;;5074478;28;21239;-64
2023/11/14 02:01:44;;;;;;;20.73;3.13;;;;;;;;;;5070376;28;20626;-64
2023/11/14 02:04:16;;;;;;;10.90;3.27;;;;;;;;;;5052237;28;20629;-64
2023/11/14 02:06:44;;;;;;;9.37;2.77;;;;;;;;;;5056395;28;20649;-64
2023/11/14 02:09:13;;;;;;;22.47;3.20;;;;;;;;;;5069582;28;20626;-64
2023/11/14 02:11:44;;;;;;;12.20;2.97;;;;;;;;;;5071406;28;20653;-64
2023/11/14 02:14:12;;;;;;;12.30;3.78;;;;;;;;;;5053335;28;20573;-64
2023/11/14 02:16:49;;;;;;;11.00;3.03;;;;;;;;;;5053746;28;20671;-64
2023/11/14 02:19:17;;;;;;;10.38;2.70;;;;;;;;;;5071206;28;20603;-64
2023/11/14 02:21:46;;;;;;;7.83;1.83;;;;;;;;;;5053577;28;20204;-64
2023/11/14 02:24:16;;;;;;;13.60;3.50;;;;;;;;;;5070656;28;20630;-64
2023/11/14 02:26:47;;;;;;;7.90;2.73;;;;;;;;;;5070952;28;20658;-63
2023/11/14 02:29:15;;;;;;;8.73;2.88;;;;;;;;;;5070483;28;20597;-64
2023/11/14 02:31:44;;;;;;;15.20;2.45;;;;;;;;;;5053348;28;20200;-64
2023/11/14 02:34:12;;;;;;;14.65;2.95;;;;;;;;;;5070687;28;20199;-64
2023/11/14 02:36:40;;;;;;;7.90;2.60;;;;;;;;;;5071677;28;20203;-64
2023/11/14 02:39:08;;;;;;;8.10;2.33;;;;;;;;;;5071261;28;20626;-63
2023/11/14 02:41:37;;;;;;;19.20;3.57;;;;;;;;;;5070791;28;20210;-64
2023/11/14 02:44:07;;;;;;;10.07;2.67;;;;;;;;;;5062697;28;21228;-64
2023/11/14 02:46:35;;;;;;;20.60;3.47;;;;;;;;;;5052871;28;20213;-64
2023/11/14 02:49:10;;;;;;;7.10;2.30;;;;;;;;;;5071286;28;20738;-64
2023/11/14 02:51:39;;;;;;;15.23;3.65;;;;;;;;;;5071758;28;20199;-63
2023/11/14 02:54:07;;;;;;;6.32;2.78;;;;;;;;;;5067189;28;20199;-64
2023/11/14 02:56:35;;;;;;;14.50;4.25;;;;;;;;;;5053524;28;20206;-63
2023/11/14 02:59:04;;;;;;;14.10;3.35;;;;;;;;;;5070808;28;20203;-64
2023/11/14 03:01:34;;;;;;;17.67;3.58;;;;;;;;;;5071143;28;20234;-65
2023/11/14 03:04:02;;;;;;;13.93;3.10;;;;;;;;;;5070401;28;20204;-64
2023/11/14 03:06:30;;;;;;;11.23;3.05;;;;;;;;;;5070851;28;20210;-63
2023/11/14 03:08:59;;;;;;;21.83;3.83;;;;;;;;;;5070170;28;20281;-64
2023/11/14 03:11:27;;;;;;;18.05;2.95;;;;;;;;;;5070429;28;20285;-64
2023/11/14 03:13:56;;;;;;;18.65;3.17;;;;;;;;;;5070235;28;20476;-63
2023/11/14 03:16:24;;;;;;;11.02;2.75;;;;;;;;;;5071381;28;20204;-64
2023/11/14 03:18:54;;;;;;;15.52;3.30;;;;;;;;;;5070111;28;20688;-64
2023/11/14 03:21:23;;;;;;;12.60;2.72;;;;;;;;;;5071249;28;20196;-64
2023/11/14 03:23:52;;;;;;;9.10;2.53;;;;;;;;;;5053584;28;20241;-64
2023/11/14 03:26:22;;;;;;;17.85;4.10;;;;;;;;;;5070797;28;20200;-64
2023/11/14 03:28:52;;;;;;;9.83;2.90;;;;;;;;;;5036386;28;20278;-64
2023/11/14 03:31:23;;;;;;;12.55;3.10;;;;;;;;;;5071020;28;20608;-63
2023/11/14 03:33:51;;;;;;;6.93;1.90;;;;;;;;;;5071234;28;20539;-64
2023/11/14 03:36:20;;;;;;;12.50;2.83;;;;;;;;;;5070641;28;20565;-65
2023/11/14 03:38:49;;;;;;;14.50;2.90;;;;;;;;;;5052675;28;20193;-64
2023/11/14 03:41:17;;;;;;;17.92;5.05;;;;;;;;;;5056370;28;20669;-64
2023/11/14 03:43:45;;;;;;;9.73;3.38;;;;;;;;;;5060506;28;20231;-64
2023/11/14 03:46:13;;;;;;;7.68;6.18;;;;;;;;;;5057597;28;20211;-65
2023/11/14 03:48:42;;;;;;;24.50;10.15;;;;;;;;;;5051976;28;20587;-65
2023/11/14 03:51:10;;;;;;;21.20;14.02;;;;;;;;;;5072919;28;20204;-64
2023/11/14 03:53:40;;;;;;;23.30;15.10;;;;;;;;;;5073778;28;20199;-64
2023/11/14 03:56:08;;;;;;;42.58;21.77;;;;;;;;;;5073453;28;20670;-64
2023/11/14 03:58:39;;;;;;;50.55;31.88;;;;;;;;;;5073881;28;20200;-67
2023/11/14 04:01:07;;;;;;;50.40;31.15;;;;;;;;;;5073528;28;20554;-65
2023/11/14 04:03:35;;;;;;;26.27;11.82;;;;;;;;;;5073139;28;20204;-66
2023/11/14 04:06:03;;;;;;;28.60;15.63;;;;;;;;;;5073773;28;20465;-64
2023/11/14 04:08:32;;;;;;;27.95;17.63;;;;;;;;;;5073557;28;20344;-64
2023/11/14 04:11:01;;;;;;;34.30;26.23;;;;;;;;;;5072283;28;20235;-64
2023/11/14 04:13:29;;;;;;;18.55;15.60;;;;;;;;;;5072605;28;20199;-64
2023/11/14 04:15:57;;;;;;;24.15;12.27;;;;;;;;;;5073757;28;20200;-64
2023/11/14 04:18:26;;;;;;;24.73;16.13;;;;;;;;;;5073302;28;20634;-61
2023/11/14 04:20:54;;;;;;;19.40;10.90;;;;;;;;;;5069098;28;20612;-62
2023/11/14 04:23:22;;;;;;;23.10;14.83;;;;;;;;;;5073281;28;21046;-64
2023/11/14 04:25:51;;;;;;;41.88;28.77;;;;;;;;;;5073354;28;20646;-64
2023/11/14 04:28:20;;;;;;;29.70;19.80;;;;;;;;;;5072105;28;20222;-64
2023/11/14 04:30:49;;;;;;;27.77;18.02;;;;;;;;;;5072840;28;20667;-64
2023/11/14 04:33:18;;;;;;;22.30;12.02;;;;;;;;;;5073305;28;20200;-64
2023/11/14 04:35:46;;;;;;;12.45;4.45;;;;;;;;;;5073724;28;20572;-64
2023/11/14 04:38:17;;;;;;;10.38;5.90;;;;;;;;;;5073242;28;20192;-65
2023/11/14 04:40:45;;;;;;;11.30;4.60;;;;;;;;;;5072258;28;20206;-64
2023/11/14 04:43:14;;;;;;;7.18;2.47;;;;;;;;;;5072765;28;20672;-64
2023/11/14 04:45:44;;;;;;;14.33;2.50;;;;;;;;;;5056218;28;20204;-64
2023/11/14 04:48:15;;;;;;;20.70;4.82;;;;;;;;;;5053040;28;20662;-62
2023/11/14 04:50:43;;;;;;;7.13;2.70;;;;;;;;;;5068368;28;20263;-61
2023/11/14 04:53:11;;;;;;;14.18;3.22;;;;;;;;;;5072803;28;20202;-64
2023/11/14 04:55:39;;;;;;;12.60;3.05;;;;;;;;;;5072908;28;20622;-64
2023/11/14 04:58:08;;;;;;;8.37;3.10;;;;;;;;;;5072285;28;20655;-64
2023/11/14 05:00:36;;;;;;;8.10;2.60;;;;;;;;;;5072472;28;20650;-67
2023/11/14 05:03:06;;;;;;;7.25;2.22;;;;;;;;;;5072036;28;20657;-62
2023/11/14 05:05:34;;;;;;;5.28;2.05;;;;;;;;;;5072304;28;20204;-63
2023/11/14 05:08:02;;;;;;;10.40;3.35;;;;;;;;;;5062751;28;20233;-64
2023/11/14 05:10:31;;;;;;;10.27;2.47;;;;;;;;;;5071926;28;20654;-61
2023/11/14 05:12:59;;;;;;;7.93;2.50;;;;;;;;;;5072063;28;21246;-61
2023/11/14 05:15:29;;;;;;;8.37;2.10;;;;;;;;;;5072554;28;21047;-61
2023/11/14 05:17:57;;;;;;;8.70;2.70;;;;;;;;;;5071311;28;20597;-64
2023/11/14 05:20:27;;;;;;;15.80;2.47;;;;;;;;;;5072351;28;20603;-64
2023/11/14 05:22:55;;;;;;;13.68;2.33;;;;;;;;;;5072280;28;20601;-64
2023/11/14 05:25:23;;;;;;;8.65;3.33;;;;;;;;;;5072434;28;20204;-64
2023/11/14 05:27:51;;;;;;;10.50;2.90;;;;;;;;;;5071901;28;20200;-64
2023/11/14 05:30:20;;;;;;;10.53;2.43;;;;;;;;;;5072111;28;20596;-64
2023/11/14 05:32:49;;;;;;;8.93;2.50;;;;;;;;;;5071944;28;20640;-61
2023/11/14 05:35:17;;;;;;;9.50;2.77;;;;;;;;;;5071849;28;20214;-64
2023/11/14 05:37:46;;;;;;;12.00;2.80;;;;;;;;;;5071360;28;20609;-64
2023/11/14 05:40:15;;;;;;;9.87;2.43;;;;;;;;;;5071649;28;20642;-65
2023/11/14 05:42:43;;;;;;;10.33;2.60;;;;;;;;;;5071093;28;20613;-64
2023/11/14 05:45:13;;;;;;;12.93;2.63;;;;;;;;;;5071425;28;20714;-64
2023/11/14 05:47:41;;;;;;;10.70;2.75;;;;;;;;;;5072205;28;20592;-64
2023/11/14 05:50:10;;;;;;;9.10;2.33;;;;;;;;;;5071625;28;20224;-64
2023/11/14 05:52:38;;;;;;;19.50;3.10;;;;;;;;;;5071464;28;20655;-64
2023/11/14 05:55:08;;;;;;;8.48;2.78;;;;;;;;;;5071442;28;20608;-66
2023/11/14 05:57:36;;;;;;;15.55;3.25;;;;;;;;;;5071561;28;20192;-64
2023/11/14 06:00:05;;;;;;;7.68;3.25;;;;;;;;;;5071836;28;20199;-66
2023/11/14 06:02:39;;;;;;;9.27;3.00;;;;;;;;;;5070320;28;20192;-64
2023/11/14 06:05:08;;;;;;;9.00;3.20;;;;;;;;;;5065234;28;20601;-64
2023/11/14 06:07:36;;;;;;;7.67;2.40;;;;;;;;;;5070763;28;20631;-66
2023/11/14 06:10:05;;;;;;;6.40;3.30;;;;;;;;;;5073421;28;21193;-64
2023/11/14 06:12:37;;;;;;;5.90;3.05;;;;;;;;;;5074392;28;20735;-64
2023/11/14 06:15:07;;;;;;;12.37;3.70;;;;;;;;;;5072198;28;20256;-62
2023/11/14 06:17:35;;;;;;;12.60;2.73;;;;;;;;;;5074575;28;20781;-64
2023/11/14 06:20:05;;;;;;;14.47;2.87;;;;;;;;;;5055731;28;20614;-64
2023/11/14 06:22:33;;;;;;;8.17;1.90;;;;;;;;;;5071609;28;21105;-63
2023/11/14 06:25:03;;;;;;;6.73;2.87;;;;;;;;;;5073905;28;20640;-64
2023/11/14 06:27:32;;;;;;;8.63;2.70;;;;;;;;;;5074478;28;20626;-64
2023/11/14 06:30:01;;;;;;;7.57;2.17;;;;;;;;;;5056573;28;20654;-64
2023/11/14 06:32:30;;;;;;;5.37;2.00;;;;;;;;;;5075598;28;20694;-66
2023/11/14 06:34:58;;;;;;;4.40;1.70;;;;;;;;;;5074664;28;20629;-64
2023/11/14 06:37:26;;;;;;;6.20;1.70;;;;;;;;;;5074304;28;20626;-64
2023/11/14 06:39:55;;;;;;;12.33;2.37;;;;;;;;;;5072104;28;21107;-64
2023/11/14 06:42:23;;;;;;;8.23;1.67;;;;;;;;;;5075190;28;20617;-64
2023/11/14 06:44:51;;;;;;;8.43;1.70;;;;;;;;;;5073801;28;21012;-64
2023/11/14 06:47:21;;;;;;;6.57;2.30;;;;;;;;;;5063915;28;20638;-65
2023/11/14 06:49:49;;;;;;;6.87;1.70;;;;;;;;;;5071164;28;20649;-64
2023/11/14 06:52:17;;;;;;;7.90;2.63;;;;;;;;;;5070913;28;20679;-64
2023/11/14 06:54:46;;;;;;;13.43;2.20;;;;;;;;;;5069984;28;20615;-62
2023/11/14 06:57:14;;;;;;;7.20;2.07;;;;;;;;;;5066879;28;20627;-62
2023/11/14 06:59:42;;;;;;;3.90;1.30;;;;;;;;;;5068397;28;20637;-62
2023/11/14 07:02:11;;;;;;;6.37;2.03;;;;;;;;;;5068380;28;20664;-63
2023/11/14 07:04:40;;;;;;;7.90;2.10;;;;;;;;;;5069137;28;20609;-62
2023/11/14 07:07:08;;;;;;;4.60;1.70;;;;;;;;;;5070762;28;20620;-62
2023/11/14 07:09:37;;;;;;;5.97;2.17;;;;;;;;;;5071066;28;20679;-63
2023/11/14 07:12:07;;;;;;;5.83;1.50;;;;;;;;;;5070254;28;20680;-62
2023/11/14 07:14:35;;;;;;;3.13;1.80;;;;;;;;;;5071049;28;20624;-64
2023/11/14 07:17:03;;;;;;;6.70;1.93;;;;;;;;;;5069431;28;20644;-64
2023/11/14 07:19:34;;;;;;;10.50;2.57;;;;;;;;;;5074671;28;20626;-62
2023/11/14 07:22:03;;;;;;;12.53;1.90;;;;;;;;;;5074894;28;20582;-63
2023/11/14 07:24:31;;;;;;;3.77;2.10;;;;;;;;;;5073912;28;20983;-62
2023/11/14 07:26:59;;;;;;;13.97;3.60;;;;;;;;;;5066094;28;20987;-62
2023/11/14 07:29:28;;;;;;;4.37;1.90;;;;;;;;;;5068620;28;20695;-62
2023/11/14 07:31:56;;;;;;;6.20;1.80;;;;;;;;;;5072496;28;20633;-64
2023/11/14 07:34:25;;;;;;;8.83;1.73;;;;;;;;;;5062055;28;20631;-64
2023/11/14 07:36:53;;;;;;;4.47;2.08;;;;;;;;;;5053759;28;20614;-62
2023/11/14 07:39:23;;;;;;;21.47;2.93;;;;;;;;;;5057113;28;20192;-62
2023/11/14 07:41:52;;;;;;;6.83;2.17;;;;;;;;;;5072103;28;20621;-63
2023/11/14 07:44:21;;;;;;;10.13;2.27;;;;;;;;;;5054978;28;20656;-64
2023/11/14 07:46:49;;;;;;;8.83;1.80;;;;;;;;;;5072061;28;20638;-65
2023/11/14 07:49:17;;;;;;;3.20;1.97;;;;;;;;;;5072581;28;20643;-64
2023/11/14 07:51:45;;;;;;;4.93;1.83;;;;;;;;;;5073087;28;20618;-63
2023/11/14 07:54:14;;;;;;;9.57;1.90;;;;;;;;;;5072809;28;21199;-62
2023/11/14 07:56:43;;;;;;;6.60;1.60;;;;;;;;;;5072564;28;20622;-62
2023/11/14 07:59:12;;;;;;;5.63;1.97;;;;;;;;;;5067438;28;20622;-62
2023/11/14 08:01:41;;;;;;;6.17;1.70;;;;;;;;;;5071636;28;21003;-64
2023/11/14 08:04:10;;;;;;;6.40;2.10;;;;;;;;;;5071612;28;20630;-64
2023/11/14 08:06:39;;;;;;;6.27;1.90;;;;;;;;;;5052539;28;20620;-62
2023/11/14 08:09:07;;;;;;;9.10;2.17;;;;;;;;;;5053658;28;20628;-63
2023/11/14 08:11:38;;;;;;;6.03;1.83;;;;;;;;;;5071697;28;20663;-63
2023/11/14 08:14:07;;;;;;;5.13;1.83;;;;;;;;;;5071689;28;20613;-66
2023/11/14 08:16:37;;;;;;;7.80;2.43;;;;;;;;;;5068334;28;21271;-64
2023/11/14 08:19:05;;;;;;;9.00;2.13;;;;;;;;;;5071542;28;20622;-62
2023/11/14 08:21:34;;;;;;;7.90;2.17;;;;;;;;;;5065009;28;20624;-62
2023/11/14 08:24:02;;;;;;;11.93;2.20;;;;;;;;;;5072418;28;20634;-62
2023/11/14 08:26:30;;;;;;;5.70;2.43;;;;;;;;;;5072092;28;20629;-63
2023/11/14 08:28:58;;;;;;;11.60;1.80;;;;;;;;;;5069682;28;20629;-62
2023/11/14 08:31:28;;;;;;;7.33;1.80;;;;;;;;;;5072191;28;20658;-64
2023/11/14 08:33:56;;;;;;;9.97;2.53;;;;;;;;;;5072470;28;20988;-63
2023/11/14 08:36:24;;;;;;;3.87;2.27;;;;;;;;;;5072718;28;20618;-63
2023/11/14 08:38:52;;;;;;;7.50;2.03;;;;;;;;;;5054194;28;20626;-63
2023/11/14 08:41:22;;;;;;;5.43;2.27;;;;;;;;;;5071570;28;20992;-63
2023/11/14 08:43:50;;;;;;;7.50;1.93;;;;;;;;;;5071276;28;20699;-63
2023/11/14 08:46:20;;;;;;;6.77;2.70;;;;;;;;;;5045146;28;20626;-62
2023/11/14 08:48:50;;;;;;;10.07;1.80;;;;;;;;;;5071838;28;20607;-63
2023/11/14 08:51:18;;;;;;;11.40;2.03;;;;;;;;;;5071578;28;20662;-63
2023/11/14 08:53:46;;;;;;;12.97;1.87;;;;;;;;;;5072635;28;20624;-62
2023/11/14 08:56:14;;;;;;;5.67;1.73;;;;;;;;;;5072351;28;20648;-63
2023/11/14 08:58:43;;;;;;;8.23;2.33;;;;;;;;;;5071525;28;20597;-62
2023/11/14 09:01:11;;;;;;;4.87;1.40;;;;;;;;;;5070249;28;20603;-62
2023/11/14 09:03:40;;;;;;;12.10;2.23;;;;;;;;;;5071567;28;20630;-63
2023/11/14 09:06:09;;;;;;;8.00;2.73;;;;;;;;;;5071672;28;20631;-63
2023/11/14 09:08:38;;;;;;;12.20;2.70;;;;;;;;;;5054199;28;20605;-63
2023/11/14 09:11:06;;;;;;;8.43;1.90;;;;;;;;;;5071106;28;20639;-65
2023/11/14 09:13:35;;;;;;;6.63;2.70;;;;;;;;;;5071759;28;20630;-63
2023/11/14 09:16:04;;;;;;;10.90;2.70;;;;;;;;;;5072356;28;20631;-63
2023/11/14 09:18:35;;;;;;;10.03;2.73;;;;;;;;;;5069189;28;20618;-62
2023/11/14 09:21:04;;;;;;;3.47;1.57;;;;;;;;;;5052425;28;20611;-62
2023/11/14 09:23:34;;;;;;;9.03;1.90;;;;;;;;;;5054309;28;20614;-62
2023/11/14 09:26:03;;;;;;;10.63;2.53;;;;;;;;;;5072070;28;20605;-62
2023/11/14 09:28:31;;;;;;;5.37;2.00;;;;;;;;;;5065567;28;20622;-63
2023/11/14 09:31:02;;;;;;;25.63;2.30;;;;;;;;;;5070596;28;20660;-63
2023/11/14 09:33:30;;;;;;;6.93;2.03;;;;;;;;;;5070815;28;20610;-63
2023/11/14 09:35:58;;;;;;;8.23;2.20;;;;;;;;;;5069699;28;20622;-63
2023/11/14 09:38:26;;;;;;;4.97;1.80;;;;;;;;;;5070551;28;20622;-63
2023/11/14 09:40:59;;;;;;;3.30;1.60;;;;;;;;;;5062552;28;21131;-63
2023/11/14 09:43:28;;;;;;;5.40;2.17;;;;;;;;;;5070941;28;20650;-63
2023/11/14 09:45:57;;;;;;;6.20;1.73;;;;;;;;;;5067333;28;20653;-65
2023/11/14 09:48:25;;;;;;;7.20;2.57;;;;;;;;;;5071135;28;20641;-64
2023/11/14 09:50:54;;;;;;;6.00;1.70;;;;;;;;;;5069722;28;20654;-63
2023/11/14 09:53:23;;;;;;;6.80;1.70;;;;;;;;;;5072240;28;20670;-62
2023/11/14 09:55:53;;;;;;;6.23;1.60;;;;;;;;;;5071932;28;20606;-63
2023/11/14 09:58:23;;;;;;;4.80;1.50;;;;;;;;;;5072122;28;20605;-63
2023/11/14 10:00:51;;;;;;;6.60;2.30;;;;;;;;;;5068890;28;20715;-64
2023/11/14 10:03:19;;;;;;;3.33;1.50;;;;;;;;;;5067344;28;20960;-63
2023/11/14 10:05:47;;;;;;;3.40;1.83;;;;;;;;;;5070323;28;20687;-63
2023/11/14 10:08:18;;;;;;;9.17;2.90;;;;;;;;;;5053459;28;20603;-63
2023/11/14 10:11:01;;;;;;;4.27;1.80;;;;;;;;;;5069928;28;20731;-63
2023/11/14 10:13:31;;;;;;;3.73;1.70;;;;;;;;;;5069592;28;20693;-64
2023/11/14 10:16:12;;;;;;;6.40;1.70;;;;;;;;;;5069676;28;21161;-63
2023/11/14 10:18:40;;;;;;;3.13;1.67;;;;;;;;;;5057672;28;21055;-63
2023/11/14 10:21:22;;;;;;;4.00;1.80;;;;;;;;;;5070380;28;20686;-63
2023/11/14 10:23:51;;;;;;;7.93;1.77;;;;;;;;;;5070241;28;20974;-64
2023/11/14 10:26:19;;;;;;;5.03;1.50;;;;;;;;;;5069681;28;21238;-63
2023/11/14 10:28:55;;;;;;;4.30;1.63;;;;;;;;;;5069782;28;20987;-63
2023/11/14 10:31:36;;;;;;;7.50;2.00;;;;;;;;;;5067249;28;20677;-63
2023/11/14 10:34:05;;;;;;;2.50;1.50;;;;;;;;;;5068594;28;20597;-65
2023/11/14 10:36:51;;;;;;;2.03;1.53;;;;;;;;;;5068715;28;21206;-63
2023/11/14 10:39:20;;;;;;;6.80;1.90;;;;;;;;;;5069888;28;20616;-64
2023/11/14 10:41:49;;;;;;;1.60;1.37;;;;;;;;;;5069128;28;21172;-64
2023/11/14 10:44:18;;;;;;;2.40;1.83;;;;;;;;;;5064653;28;20677;-63
2023/11/14 10:46:50;;;;;;;2.70;1.37;;;;;;;;;;5069137;28;20637;-63
2023/11/14 10:49:18;;;;;;;5.70;2.20;;;;;;;;;;5069357;28;20608;-63
2023/11/14 10:51:48;;;;;;;6.97;1.80;;;;;;;;;;5069015;28;20656;-63
2023/11/14 10:54:16;;;;;;;6.17;2.00;;;;;;;;;;5073339;28;20608;-65
2023/11/14 10:56:45;;;;;;;4.40;2.07;;;;;;;;;;5074933;28;20607;-65
2023/11/14 10:59:14;;;;;;;7.73;2.20;;;;;;;;;;5073823;28;20629;-64
2023/11/14 11:01:45;;;;;;;5.53;1.80;;;;;;;;;;5072076;28;20634;-64
2023/11/14 11:04:14;;;;;;;6.03;1.97;;;;;;;;;;5076768;28;20573;-64
2023/11/14 11:06:42;;;;;;;3.07;1.80;;;;;;;;;;5063874;28;20645;-63
2023/11/14 11:09:11;;;;;;;3.73;1.63;;;;;;;;;;5072526;28;20629;-63
2023/11/14 11:11:41;;;;;;;3.63;1.90;;;;;;;;;;5072704;28;20670;-63
2023/11/14 11:14:12;;;;;;;9.40;1.90;;;;;;;;;;5073328;28;20606;-63
2023/11/14 11:16:41;;;;;;;3.00;2.00;;;;;;;;;;5063134;28;20605;-63
2023/11/14 11:19:11;;;;;;;8.70;2.60;;;;;;;;;;5073829;28;20651;-64
2023/11/14 11:21:39;;;;;;;4.83;2.40;;;;;;;;;;5071986;28;20942;-62
2023/11/14 11:24:10;;;;;;;3.20;2.13;;;;;;;;;;5055070;28;20632;-62
2023/11/14 11:27:02;;;;;;;3.00;2.43;;;;;;;;;;5073713;28;20686;-62
2023/11/14 11:29:50;;;;;;;8.93;2.80;;;;;;;;;;5052664;28;20630;-62
2023/11/14 11:32:26;;;;;;;7.10;2.90;;;;;;;;;;5072543;28;20654;-62
2023/11/14 11:35:13;;;;;;;4.10;1.90;;;;;;;;;;5079610;28;20585;-62
2023/11/14 11:37:48;;;;;;;2.13;1.70;;;;;;;;;;5073791;28;21122;-63
2023/11/14 11:40:17;;;;;;;4.07;2.40;;;;;;;;;;5072965;28;20662;-63
2023/11/14 11:42:45;;;;;;;5.53;2.37;;;;;;;;;;5070897;28;20610;-62
2023/11/14 11:45:28;;;;;;;2.50;1.70;;;;;;;;;;5072465;28;20622;-62
2023/11/14 11:47:57;;;;;;;6.27;2.10;;;;;;;;;;5070131;28;20633;-63
2023/11/14 11:50:26;;;;;;;4.17;1.63;;;;;;;;;;5072408;28;21044;-62
2023/11/14 11:53:03;;;;;;;3.10;1.40;;;;;;;;;;5073350;28;20664;-63
2023/11/14 11:55:31;;;;;;;2.73;1.73;;;;;;;;;;5069620;28;20619;-62
2023/11/14 11:58:00;;;;;;;7.33;1.90;;;;;;;;;;5072317;28;20625;-62
2023/11/14 12:00:29;;;;;;;6.33;1.60;;;;;;;;;;5067197;28;20643;-62
2023/11/14 12:02:59;;;;;;;3.13;1.70;;;;;;;;;;5068927;28;20626;-62
2023/11/14 12:05:28;;;;;;;2.17;1.80;;;;;;;;;;5069273;28;20655;-62
2023/11/14 12:07:57;;;;;;;4.00;2.20;;;;;;;;;;5066991;28;20944;-63
2023/11/14 12:10:27;;;;;;;7.17;1.93;;;;;;;;;;5071071;28;20622;-62
2023/11/14 12:12:56;;;;;;;13.20;2.10;;;;;;;;;;5072081;28;20638;-62
2023/11/14 12:15:25;;;;;;;3.80;1.77;;;;;;;;;;5071711;28;20622;-62
2023/11/14 12:17:53;;;;;;;1.80;1.70;;;;;;;;;;5070506;28;20628;-62
2023/11/14 12:20:22;;;;;;;10.03;1.47;;;;;;;;;;5072366;28;20644;-62
2023/11/14 12:22:52;;;;;;;4.10;1.60;;;;;;;;;;5072940;28;21508;-63
2023/11/14 12:25:21;;;;;;;4.97;2.50;;;;;;;;;;5077670;28;21481;-62
2023/11/14 12:27:51;;;;;;;3.87;2.07;;;;;;;;;;5076123;28;20633;-63
2023/11/14 12:30:19;;;;;;;4.00;2.20;;;;;;;;;;5071453;28;20602;-62
2023/11/14 12:33:02;;;;;;;3.37;1.40;;;;;;;;;;5072424;28;20664;-62
2023/11/14 12:35:44;;;;;;;4.50;1.83;;;;;;;;;;5068644;28;20687;-63
2023/11/14 12:38:13;;;;;;;10.00;2.10;;;;;;;;;;5071417;28;20614;-64
2023/11/14 12:40:41;;;;;;;9.63;2.20;;;;;;;;;;5071848;28;20616;-63
2023/11/14 12:43:11;;;;;;;3.40;1.70;;;;;;;;;;5070826;28;20666;-64
2023/11/14 12:45:49;;;;;;;6.00;1.93;;;;;;;;;;5062102;28;20683;-63
2023/11/14 12:48:17;;;;;;;7.20;2.20;;;;;;;;;;5056010;28;20619;-64
2023/11/14 12:50:45;;;;;;;4.43;1.83;;;;;;;;;;5083480;28;20625;-63
2023/11/14 12:53:13;;;;;;;11.77;2.50;;;;;;;;;;5088142;28;20694;-64
2023/11/14 12:55:42;;;;;;;31.33;22.07;;;;;;;;;;5069949;28;20630;-63
2023/11/14 12:58:11;;;;;;;19.57;14.97;;;;;;;;;;5083073;28;21276;-64
2023/11/14 13:00:39;;;;;;;6.67;5.43;;;;;;;;;;5069496;28;20628;-64
2023/11/14 13:03:08;;;;;;;19.97;15.50;;;;;;;;;;5071353;28;21187;-64
2023/11/14 13:05:36;;;;;;;5.33;2.90;;;;;;;;;;5081677;28;20643;-65
2023/11/14 13:08:04;;;;;;;3.87;3.43;;;;;;;;;;5075316;28;20997;-63
2023/11/14 13:10:33;;;;;;;4.77;1.50;;;;;;;;;;5076943;28;20791;-63
2023/11/14 13:13:01;;;;;;;6.50;2.00;;;;;;;;;;5070915;28;20626;-63
2023/11/14 13:15:31;;;;;;;5.57;2.10;;;;;;;;;;5079071;28;20622;-63
2023/11/14 13:17:59;;;;;;;6.27;2.10;;;;;;;;;;5076632;28;21159;-64
2023/11/14 13:20:27;;;;;;;5.03;1.80;;;;;;;;;;5082560;28;20971;-63
2023/11/14 13:22:57;;;;;;;1.90;1.70;;;;;;;;;;5077878;28;21205;-63
2023/11/14 13:25:25;;;;;;;2.50;1.57;;;;;;;;;;5089759;28;20834;-63
2023/11/14 13:27:53;;;;;;;1.40;1.30;;;;;;;;;;5078329;28;20629;-63
2023/11/14 13:30:22;;;;;;;4.90;1.80;;;;;;;;;;5084989;28;20619;-63
2023/11/14 13:32:53;;;;;;;4.13;1.70;;;;;;;;;;5081632;28;20671;-64
2023/11/14 13:35:22;;;;;;;3.27;1.60;;;;;;;;;;5073470;28;20630;-63
2023/11/14 13:37:50;;;;;;;3.13;2.10;;;;;;;;;;5070723;28;20632;-63
2023/11/14 13:40:18;;;;;;;4.03;1.77;;;;;;;;;;5070950;28;20628;-63
2023/11/14 13:42:47;;;;;;;5.57;1.83;;;;;;;;;;5069583;28;20652;-63
2023/11/14 13:45:15;;;;;;;5.47;1.57;;;;;;;;;;5063971;28;21129;-63
2023/11/14 13:47:43;;;;;;;3.20;2.07;;;;;;;;;;5072192;28;21188;-63
2023/11/14 13:50:15;;;;;;;3.00;1.80;;;;;;;;;;5073292;28;21200;-64
2023/11/14 13:52:43;;;;;;;2.43;1.43;;;;;;;;;;5072582;28;20639;-63
2023/11/14 13:55:12;;;;;;;4.50;1.33;;;;;;;;;;5075640;28;20632;-63
2023/11/14 13:57:41;;;;;;;4.63;1.70;;;;;;;;;;5079835;28;20626;-63
2023/11/14 14:00:11;;;;;;;5.13;1.23;;;;;;;;;;5071829;28;20622;-63
2023/11/14 14:02:40;;;;;;;3.43;1.30;;;;;;;;;;5077946;28;20598;-64
2023/11/14 14:05:09;;;;;;;6.20;1.53;;;;;;;;;;5073861;28;20659;-63
2023/11/14 14:07:44;;;;;;;3.10;2.07;;;;;;;;;;5069864;28;20620;-63
2023/11/14 14:10:14;;;;;;;2.53;1.87;;;;;;;;;;5052848;28;21191;-64
2023/11/14 14:12:43;;;;;;;1.70;1.40;;;;;;;;;;5068259;28;21022;-63
2023/11/14 14:15:11;;;;;;;3.70;1.40;;;;;;;;;;5070074;28;20617;-64
2023/11/14 14:17:40;;;;;;;2.77;1.73;;;;;;;;;;5074125;28;20634;-63
2023/11/14 14:20:10;;;;;;;4.93;1.90;;;;;;;;;;5072994;28;20626;-63
2023/11/14 14:22:40;;;;;;;4.33;1.43;;;;;;;;;;5068086;28;20637;-64
2023/11/14 14:25:08;;;;;;;1.93;1.37;;;;;;;;;;5066735;28;20637;-63
2023/11/14 14:27:37;;;;;;;2.40;1.70;;;;;;;;;;5066917;28;20637;-64
2023/11/14 14:30:06;;;;;;;3.57;1.33;;;;;;;;;;5071814;28;20632;-64
2023/11/14 14:32:35;;;;;;;3.50;1.60;;;;;;;;;;5081503;28;20649;-65
2023/11/14 14:35:04;;;;;;;3.03;1.40;;;;;;;;;;5060246;28;20630;-64
2023/11/14 14:37:32;;;;;;;5.10;1.70;;;;;;;;;;5077368;28;20626;-63
2023/11/14 14:40:05;;;;;;;2.47;1.30;;;;;;;;;;5070962;28;20644;-65
2023/11/14 14:42:33;;;;;;;3.93;1.37;;;;;;;;;;5073625;28;20622;-64
2023/11/14 14:45:03;;;;;;;9.20;1.90;;;;;;;;;;5076823;28;20646;-63
2023/11/14 14:47:32;;;;;;;2.93;1.63;;;;;;;;;;5072738;28;21018;-64
2023/11/14 14:50:04;;;;;;;4.33;1.40;;;;;;;;;;5074406;28;21246;-63